An Nasiriyah, Iraq
Current Conditions -  °F | °C
As of 10:00 PM on Saturday 25 Oct 2014 (Local Time) from ORMM Reporting Station
Clear Clear  
Wind Chill: 21°   Ceiling: Unl
Heat Index: 21°   Visibility: 6mi
Dew Point:   Wind: 0mph
Humidity: 46%   Direction: NA
Pressure: 29.91"   Gusts: NA
Location:  31.04°N, 46.26°E
Report Text: ORMM 251900Z 00000KT CAVOK 21/09 Q1013 NOSIG
Loading
Personal Weather Stations






























Interactive Weather Map
Tropical Storm Tracking
New forecast layout! Learn more

10-Day Weather Forecast

Advertisements
Track Severe Weather on mobile